createdAt,value
2023-01-07T00:00:51.400Z,2.49
2023-01-07T00:03:18.167Z,2.42
2023-01-07T00:05:45.038Z,2.31
2023-01-07T00:08:11.568Z,2.46
2023-01-07T00:10:38.022Z,2.36
2023-01-07T00:13:04.572Z,2.47
2023-01-07T00:15:31.031Z,2.40
2023-01-07T00:17:57.478Z,2.32
2023-01-07T00:20:23.970Z,2.32
2023-01-07T00:22:51.170Z,2.39
2023-01-07T00:25:17.632Z,2.26
2023-01-07T00:27:44.119Z,3.53
2023-01-07T00:30:10.979Z,2.98
2023-01-07T00:33:13.094Z,2.69
2023-01-07T00:35:40.951Z,2.49
2023-01-07T00:38:07.435Z,2.46
2023-01-07T00:40:33.989Z,2.23
2023-01-07T00:43:07.014Z,2.13
2023-01-07T00:45:34.847Z,2.21
2023-01-07T00:48:02.324Z,2.11
2023-01-07T00:50:33.070Z,2.08
2023-01-07T00:52:59.807Z,1.88
2023-01-07T00:55:27.078Z,1.86
2023-01-07T00:57:54.115Z,1.91
2023-01-07T01:00:21.860Z,2.00
2023-01-07T01:02:49.219Z,1.91
2023-01-07T01:05:16.272Z,2.10
2023-01-07T01:07:42.777Z,2.15
2023-01-07T01:10:10.523Z,1.97
2023-01-07T01:12:37.100Z,2.08
2023-01-07T01:15:04.785Z,1.91
2023-01-07T01:17:31.484Z,1.90
2023-01-07T01:19:57.981Z,1.91
2023-01-07T01:22:24.465Z,1.88
2023-01-07T01:24:51.322Z,1.87
2023-01-07T01:27:18.662Z,1.82
2023-01-07T01:29:45.166Z,1.73
2023-01-07T01:32:13.044Z,1.88
2023-01-07T01:34:40.788Z,1.87
2023-01-07T01:37:07.326Z,1.85
2023-01-07T01:39:34.003Z,1.94
2023-01-07T01:42:00.594Z,2.03
2023-01-07T01:44:43.845Z,2.01
2023-01-07T01:47:20.747Z,2.13
2023-01-07T01:49:58.624Z,2.00
2023-01-07T01:52:30.461Z,1.77
2023-01-07T01:54:58.929Z,1.66
2023-01-07T01:57:27.928Z,1.81
2023-01-07T01:59:56.474Z,1.72
2023-01-07T02:02:28.581Z,1.72
2023-01-07T02:04:56.190Z,1.61
2023-01-07T02:07:22.711Z,1.44
2023-01-07T02:09:59.875Z,1.43
2023-01-07T02:12:32.973Z,1.65
2023-01-07T02:15:11.091Z,1.49
2023-01-07T02:17:56.457Z,1.66
2023-01-07T02:20:26.905Z,1.56
2023-01-07T02:23:12.202Z,1.52
2023-01-07T02:25:41.987Z,1.50
2023-01-07T02:28:27.329Z,1.47
2023-01-07T02:31:08.256Z,1.66
2023-01-07T02:33:43.924Z,1.58
2023-01-07T02:36:19.695Z,1.48
2023-01-07T02:39:05.188Z,1.46
2023-01-07T02:41:35.466Z,1.46
2023-01-07T02:44:04.880Z,1.56
2023-01-07T02:46:35.603Z,1.63
2023-01-07T02:49:04.990Z,1.58
2023-01-07T02:51:35.578Z,1.71
2023-01-07T02:54:02.106Z,1.78
2023-01-07T02:56:36.686Z,1.73
2023-01-07T02:59:03.905Z,1.78
2023-01-07T03:01:37.696Z,1.87
2023-01-07T03:04:23.115Z,1.60
2023-01-07T03:06:50.483Z,1.56
2023-01-07T03:09:22.779Z,1.77
2023-01-07T03:12:11.479Z,1.98
2023-01-07T03:14:41.086Z,1.86
2023-01-07T03:17:09.362Z,1.58
2023-01-07T03:19:38.203Z,1.74
2023-01-07T03:22:07.578Z,1.68
2023-01-07T03:24:34.119Z,1.41
2023-01-07T03:27:02.762Z,1.59
2023-01-07T03:29:29.467Z,1.72
2023-01-07T03:31:59.065Z,1.59
2023-01-07T03:34:28.156Z,1.51
2023-01-07T03:37:02.093Z,1.40
2023-01-07T03:39:31.647Z,1.48
2023-01-07T03:42:16.967Z,1.31
2023-01-07T03:44:43.845Z,1.40
2023-01-07T03:47:12.011Z,1.34
2023-01-07T03:49:38.789Z,1.33
2023-01-07T03:52:05.717Z,1.26
2023-01-07T03:54:32.278Z,1.30
2023-01-07T03:56:58.858Z,1.43
2023-01-07T03:59:25.423Z,1.29
2023-01-07T04:01:52.992Z,1.35
2023-01-07T04:04:20.965Z,1.24
2023-01-07T04:06:47.902Z,1.19
2023-01-07T04:09:18.853Z,1.21
2023-01-07T04:11:46.237Z,1.22
2023-01-07T04:14:12.777Z,0.95
2023-01-07T04:16:39.400Z,1.13
2023-01-07T04:19:06.464Z,1.29
2023-01-07T04:21:32.952Z,1.17
2023-01-07T04:23:59.464Z,1.37
2023-01-07T04:26:25.934Z,1.30
2023-01-07T04:28:52.629Z,1.24
2023-01-07T04:31:19.112Z,1.06
2023-01-07T04:33:45.599Z,1.14
2023-01-07T04:36:13.695Z,1.20
2023-01-07T04:38:41.128Z,1.27
2023-01-07T04:41:07.998Z,0.79
2023-01-07T04:43:36.152Z,1.06
2023-01-07T04:46:04.966Z,1.20
2023-01-07T04:48:32.930Z,1.19
2023-01-07T04:51:00.020Z,1.20
2023-01-07T04:53:27.187Z,1.24
2023-01-07T04:55:54.696Z,1.15
2023-01-07T04:58:21.384Z,0.92
2023-01-07T05:00:48.189Z,0.91
2023-01-07T05:03:14.812Z,0.99
2023-01-07T05:05:41.341Z,1.02
2023-01-07T05:08:07.827Z,1.13
2023-01-07T05:10:34.957Z,1.01
2023-01-07T05:13:06.917Z,0.96
2023-01-07T05:15:34.312Z,0.89
2023-01-07T05:18:00.913Z,1.01
2023-01-07T05:20:27.836Z,0.93
2023-01-07T05:22:54.465Z,0.88
2023-01-07T05:25:20.984Z,0.82
2023-01-07T05:27:47.559Z,0.83
2023-01-07T05:30:14.358Z,0.87
2023-01-07T05:32:41.437Z,0.80
2023-01-07T05:35:08.390Z,0.85
2023-01-07T05:37:35.315Z,0.85
2023-01-07T05:40:03.044Z,1.04
2023-01-07T05:42:29.733Z,0.69
2023-01-07T05:44:56.309Z,0.87
2023-01-07T05:47:22.840Z,0.71
2023-01-07T05:49:49.393Z,0.74
2023-01-07T05:52:15.818Z,0.82
2023-01-07T05:54:42.473Z,0.98
2023-01-07T05:57:09.169Z,0.91
2023-01-07T05:59:35.726Z,0.93
2023-01-07T06:02:02.673Z,0.79
2023-01-07T06:04:31.038Z,0.83
2023-01-07T06:06:57.538Z,0.82
2023-01-07T06:09:24.060Z,0.95
2023-01-07T06:11:50.580Z,1.06
2023-01-07T06:14:17.019Z,1.18
2023-01-07T06:16:43.482Z,1.86
2023-01-07T06:19:13.746Z,1.48
2023-01-07T06:21:40.471Z,1.39
2023-01-07T06:24:07.206Z,1.31
2023-01-07T06:26:33.731Z,1.24
2023-01-07T06:29:00.161Z,1.18
2023-01-07T06:31:26.805Z,1.18
2023-01-07T06:33:53.363Z,1.14
2023-01-07T06:36:19.932Z,0.99
2023-01-07T06:38:46.418Z,1.04
2023-01-07T06:41:12.930Z,0.98
2023-01-07T06:43:39.383Z,0.98
2023-01-07T06:46:06.289Z,1.04
2023-01-07T06:48:32.830Z,1.02
2023-01-07T06:50:59.277Z,1.04
2023-01-07T06:53:25.735Z,0.96
2023-01-07T06:55:52.192Z,0.89
2023-01-07T06:58:18.886Z,0.99
2023-01-07T07:00:45.425Z,0.86
2023-01-07T07:03:11.972Z,1.00
2023-01-07T07:05:38.832Z,0.99
2023-01-07T07:08:06.398Z,1.06
2023-01-07T07:10:33.286Z,1.04
2023-01-07T07:12:59.777Z,1.16
2023-01-07T07:15:26.289Z,1.17
2023-01-07T07:17:53.139Z,1.21
2023-01-07T07:20:19.751Z,1.13
2023-01-07T07:22:46.365Z,1.52
2023-01-07T07:25:13.005Z,2.02
2023-01-07T07:27:39.508Z,2.32
2023-01-07T07:30:06.370Z,2.61
2023-01-07T07:32:32.848Z,3.23
2023-01-07T07:34:59.353Z,3.43
2023-01-07T07:37:25.847Z,3.79
2023-01-07T07:39:52.366Z,4.11
2023-01-07T07:42:18.867Z,4.16
2023-01-07T07:44:45.372Z,4.16
2023-01-07T07:47:12.105Z,4.31
2023-01-07T07:49:38.589Z,4.64
2023-01-07T07:52:05.124Z,4.62
2023-01-07T07:54:31.601Z,4.02
2023-01-07T07:56:58.438Z,4.00
2023-01-07T07:59:25.298Z,4.31
2023-01-07T08:01:51.918Z,4.60
2023-01-07T08:04:18.468Z,5.15
2023-01-07T08:06:44.999Z,5.90
2023-01-07T08:09:11.481Z,6.10
2023-01-07T08:11:37.926Z,6.58
2023-01-07T08:14:04.426Z,6.61
2023-01-07T08:16:30.939Z,7.17
2023-01-07T08:18:57.386Z,6.68
2023-01-07T08:21:23.863Z,7.39
2023-01-07T08:23:50.311Z,7.37
2023-01-07T08:26:16.857Z,8.00
2023-01-07T08:28:46.418Z,7.28
2023-01-07T08:31:13.243Z,6.85
2023-01-07T08:33:39.797Z,6.78
2023-01-07T08:36:18.189Z,6.16
2023-01-07T08:38:52.438Z,6.17
2023-01-07T08:41:19.841Z,5.94
2023-01-07T08:43:46.432Z,5.88
2023-01-07T08:46:12.929Z,6.05
2023-01-07T08:48:40.284Z,6.23
2023-01-07T08:51:06.847Z,6.39
2023-01-07T08:53:33.750Z,6.44
2023-01-07T08:56:00.253Z,6.71
2023-01-07T08:58:26.734Z,7.12
2023-01-07T09:00:53.302Z,7.44
2023-01-07T09:03:19.943Z,7.77
2023-01-07T09:05:47.083Z,8.02
2023-01-07T09:08:13.782Z,8.29
2023-01-07T09:10:40.237Z,8.05
2023-01-07T09:13:06.854Z,8.29
2023-01-07T09:15:33.381Z,7.84
2023-01-07T09:17:59.895Z,7.56
2023-01-07T09:20:26.416Z,7.71
2023-01-07T09:22:52.877Z,8.21
2023-01-07T09:25:19.382Z,8.13
2023-01-07T09:27:45.945Z,8.11
2023-01-07T09:30:12.766Z,8.25
2023-01-07T09:32:39.647Z,8.27
2023-01-07T09:35:06.452Z,8.98
2023-01-07T09:37:33.000Z,8.85
2023-01-07T09:40:01.105Z,8.57
2023-01-07T09:43:03.172Z,8.34
2023-01-07T09:45:34.590Z,8.05
2023-01-07T09:48:04.635Z,8.33
2023-01-07T09:50:50.913Z,8.53
2023-01-07T09:53:30.461Z,7.48
2023-01-07T09:56:11.907Z,7.41
2023-01-07T09:58:41.375Z,7.92
2023-01-07T10:01:15.840Z,7.98
2023-01-07T10:03:42.316Z,7.50
2023-01-07T10:06:41.946Z,7.74
2023-01-07T10:09:12.372Z,8.00
2023-01-07T10:11:38.818Z,8.57
2023-01-07T10:14:23.914Z,8.60
2023-01-07T10:16:59.498Z,8.57
2023-01-07T10:19:55.395Z,8.80
2023-01-07T10:22:25.181Z,9.78
2023-01-07T10:24:56.661Z,9.92
2023-01-07T10:27:28.629Z,10.14
2023-01-07T10:29:56.375Z,9.94
2023-01-07T10:32:24.437Z,8.98
2023-01-07T10:34:53.935Z,8.85
2023-01-07T10:37:20.458Z,9.13
2023-01-07T10:39:57.776Z,9.45
2023-01-07T10:42:29.705Z,9.45
2023-01-07T10:45:15.700Z,9.13
2023-01-07T10:47:42.161Z,9.61
2023-01-07T10:50:27.510Z,9.95
2023-01-07T10:52:56.940Z,9.96
2023-01-07T10:55:32.287Z,10.07
2023-01-07T10:57:58.752Z,9.80
2023-01-07T11:00:25.998Z,9.36
2023-01-07T11:02:57.935Z,9.49
2023-01-07T11:05:33.138Z,9.69
2023-01-07T11:08:01.669Z,9.64
2023-01-07T11:10:30.236Z,10.36
2023-01-07T11:13:16.930Z,10.96
2023-01-07T11:15:45.980Z,11.04
2023-01-07T11:18:12.607Z,12.05
2023-01-07T11:20:42.708Z,12.03
2023-01-07T11:23:19.400Z,12.81
2023-01-07T11:25:46.559Z,12.64
2023-01-07T11:28:19.942Z,12.90
2023-01-07T11:30:55.408Z,12.99
2023-01-07T11:34:02.272Z,13.72
2023-01-07T11:36:42.571Z,14.00
2023-01-07T11:39:18.027Z,13.89
2023-01-07T11:41:51.767Z,13.57
2023-01-07T11:44:18.238Z,13.83
2023-01-07T11:46:45.458Z,13.77
2023-01-07T11:49:28.950Z,14.26
2023-01-07T11:51:56.198Z,14.70
2023-01-07T11:54:24.637Z,14.44
2023-01-07T11:56:54.033Z,14.49
2023-01-07T11:59:21.194Z,13.86
2023-01-07T12:01:48.745Z,13.43
2023-01-07T12:04:27.179Z,13.37
2023-01-07T12:06:58.380Z,13.43
2023-01-07T12:09:26.745Z,13.60
2023-01-07T12:11:54.716Z,13.57
2023-01-07T12:14:31.588Z,13.46
2023-01-07T12:17:15.341Z,14.80
2023-01-07T12:20:00.403Z,13.46
2023-01-07T12:22:46.510Z,13.37
2023-01-07T12:25:16.127Z,13.87
2023-01-07T12:27:45.611Z,14.09
2023-01-07T12:30:21.924Z,14.43
2023-01-07T12:32:54.432Z,14.75
2023-01-07T12:35:32.102Z,14.60
2023-01-07T12:38:05.101Z,14.35
2023-01-07T12:41:10.748Z,14.47
2023-01-07T12:43:38.767Z,14.74
2023-01-07T12:46:07.136Z,14.82
2023-01-07T12:48:36.605Z,15.04
2023-01-07T12:51:08.776Z,15.01
2023-01-07T12:53:45.173Z,15.16
2023-01-07T12:56:23.902Z,15.39
2023-01-07T12:58:53.658Z,15.36
2023-01-07T13:01:25.790Z,15.08
2023-01-07T13:04:01.635Z,15.17
2023-01-07T13:06:31.075Z,15.27
2023-01-07T13:09:02.121Z,14.90
2023-01-07T13:11:53.393Z,15.01
2023-01-07T13:14:24.957Z,14.96
2023-01-07T13:16:51.514Z,15.68
2023-01-07T13:19:18.003Z,14.97
2023-01-07T13:21:48.571Z,14.65
2023-01-07T13:24:55.204Z,13.89
2023-01-07T13:27:27.743Z,13.65
2023-01-07T13:30:03.751Z,14.65
2023-01-07T13:32:45.646Z,14.84
2023-01-07T13:35:24.947Z,14.59
2023-01-07T13:37:54.697Z,14.06
2023-01-07T13:40:44.441Z,13.93
2023-01-07T13:43:29.175Z,13.50
2023-01-07T13:46:02.589Z,13.51
2023-01-07T13:48:29.366Z,13.60
2023-01-07T13:51:04.070Z,14.09
2023-01-07T13:53:47.000Z,13.87
2023-01-07T13:56:33.722Z,13.84
2023-01-07T13:59:00.608Z,13.53
2023-01-07T14:01:28.301Z,13.75
2023-01-07T14:03:54.850Z,13.04
2023-01-07T14:06:21.720Z,13.13
2023-01-07T14:08:56.263Z,12.90
2023-01-07T14:11:42.692Z,12.56
2023-01-07T14:14:18.938Z,12.68
2023-01-07T14:16:50.258Z,12.69
2023-01-07T14:19:37.802Z,12.16
2023-01-07T14:22:16.377Z,11.97
2023-01-07T14:24:52.314Z,11.70
2023-01-07T14:27:37.383Z,11.52
2023-01-07T14:30:16.603Z,11.34
2023-01-07T14:32:44.004Z,11.61
2023-01-07T14:35:10.457Z,11.40
2023-01-07T14:37:42.076Z,11.03
2023-01-07T14:40:26.752Z,10.74
2023-01-07T14:42:53.602Z,10.34
2023-01-07T14:45:38.778Z,9.91
2023-01-07T14:48:08.195Z,9.88
2023-01-07T14:50:37.870Z,9.83
2023-01-07T14:53:21.402Z,9.74
2023-01-07T14:55:53.890Z,9.64
2023-01-07T14:58:29.315Z,9.57
2023-01-07T15:01:04.972Z,9.70
2023-01-07T15:03:31.415Z,9.38
2023-01-07T15:06:06.759Z,9.46
2023-01-07T15:09:03.937Z,9.12
2023-01-07T15:11:49.588Z,9.02
2023-01-07T15:14:37.647Z,8.93
2023-01-07T15:17:04.810Z,8.80
2023-01-07T15:19:36.682Z,8.67
2023-01-07T15:22:12.364Z,8.79
2023-01-07T15:24:44.659Z,8.89
2023-01-07T15:27:22.707Z,8.72
2023-01-07T15:29:58.280Z,8.65
2023-01-07T15:32:37.099Z,8.27
2023-01-07T15:35:18.619Z,8.34
2023-01-07T15:37:46.435Z,8.11
2023-01-07T15:40:16.075Z,7.86
2023-01-07T15:42:44.159Z,7.81
2023-01-07T15:45:13.889Z,7.90
2023-01-07T15:47:41.769Z,7.95
2023-01-07T15:50:28.452Z,7.95
2023-01-07T15:52:55.039Z,7.89
2023-01-07T15:55:26.310Z,7.84
2023-01-07T15:57:56.186Z,7.83
2023-01-07T16:00:23.577Z,7.83
2023-01-07T16:02:50.067Z,7.43
2023-01-07T16:05:18.038Z,7.45
2023-01-07T16:07:51.600Z,7.34
2023-01-07T16:10:18.876Z,7.30
2023-01-07T16:12:48.995Z,7.14
2023-01-07T16:15:26.434Z,7.20
2023-01-07T16:17:57.307Z,7.06
2023-01-07T16:20:29.700Z,6.93
2023-01-07T16:23:04.790Z,6.83
2023-01-07T16:25:34.315Z,6.82
2023-01-07T16:28:01.018Z,6.82
2023-01-07T16:30:27.559Z,6.57
2023-01-07T16:32:54.781Z,6.32
2023-01-07T16:35:25.393Z,6.25
2023-01-07T16:37:53.783Z,6.20
2023-01-07T16:40:24.171Z,6.17
2023-01-07T16:42:50.666Z,6.16
2023-01-07T16:45:25.415Z,6.31
2023-01-07T16:48:10.687Z,6.17
2023-01-07T16:50:38.657Z,6.08
2023-01-07T16:53:19.891Z,6.11
2023-01-07T16:55:48.021Z,5.92
2023-01-07T16:58:29.005Z,5.93
2023-01-07T17:00:56.833Z,5.87
2023-01-07T17:03:24.254Z,5.72
2023-01-07T17:06:02.548Z,5.48
2023-01-07T17:08:29.754Z,5.56
2023-01-07T17:10:57.950Z,5.51
2023-01-07T17:13:24.375Z,5.56
2023-01-07T17:15:50.804Z,5.38
2023-01-07T17:18:17.346Z,5.21
2023-01-07T17:20:47.555Z,5.26
2023-01-07T17:23:34.259Z,5.05
2023-01-07T17:26:02.009Z,5.01
2023-01-07T17:28:30.270Z,5.09
2023-01-07T17:30:56.860Z,4.99
2023-01-07T17:33:24.581Z,4.79
2023-01-07T17:35:51.689Z,4.72
2023-01-07T17:38:18.930Z,4.63
2023-01-07T17:40:45.809Z,4.61
2023-01-07T17:43:35.833Z,4.67
2023-01-07T17:46:06.744Z,4.72
2023-01-07T17:48:34.502Z,4.62
2023-01-07T17:51:01.407Z,4.44
2023-01-07T17:53:32.288Z,4.36
2023-01-07T17:56:00.777Z,4.52
2023-01-07T17:58:27.557Z,4.70
2023-01-07T18:00:54.649Z,4.57
2023-01-07T18:03:21.468Z,4.49
2023-01-07T18:05:47.930Z,4.48
2023-01-07T18:08:14.476Z,4.38
2023-01-07T18:11:00.209Z,4.26
2023-01-07T18:13:28.945Z,4.26
2023-01-07T18:15:57.383Z,4.22
2023-01-07T18:18:24.316Z,4.22
2023-01-07T18:20:50.856Z,4.16
2023-01-07T18:23:17.347Z,4.17
2023-01-07T18:25:44.245Z,4.17
2023-01-07T18:28:10.780Z,4.06
2023-01-07T18:30:39.078Z,4.03
2023-01-07T18:33:07.680Z,4.02
2023-01-07T18:35:34.487Z,4.02
2023-01-07T18:38:00.951Z,3.81
2023-01-07T18:40:27.818Z,3.67
2023-01-07T18:42:54.458Z,3.74
2023-01-07T18:45:20.977Z,3.69
2023-01-07T18:47:47.685Z,3.69
2023-01-07T18:50:14.735Z,3.62
2023-01-07T18:52:41.988Z,3.50
2023-01-07T18:55:09.131Z,3.55
2023-01-07T18:57:35.949Z,3.56
2023-01-07T19:00:03.844Z,3.58
2023-01-07T19:02:30.332Z,3.62
2023-01-07T19:04:56.849Z,3.51
2023-01-07T19:07:23.337Z,3.35
2023-01-07T19:09:49.951Z,3.39
2023-01-07T19:12:16.521Z,3.29
2023-01-07T19:14:42.965Z,3.20
2023-01-07T19:17:09.420Z,3.16
2023-01-07T19:19:47.470Z,2.95
2023-01-07T19:22:15.834Z,3.04
2023-01-07T19:24:42.298Z,2.98
2023-01-07T19:27:08.837Z,2.97
2023-01-07T19:29:35.290Z,2.98
2023-01-07T19:32:01.836Z,2.86
2023-01-07T19:34:28.296Z,2.68
2023-01-07T19:36:54.812Z,2.80
2023-01-07T19:39:22.270Z,2.79
2023-01-07T19:41:49.163Z,2.70
2023-01-07T19:44:16.066Z,2.77
2023-01-07T19:46:43.960Z,2.79
2023-01-07T19:49:11.467Z,2.66
2023-01-07T19:51:38.986Z,2.60
2023-01-07T19:54:06.073Z,2.35
2023-01-07T19:56:33.215Z,2.45
2023-01-07T19:58:59.804Z,2.42
2023-01-07T20:01:28.462Z,2.46
2023-01-07T20:03:56.281Z,2.45
2023-01-07T20:06:24.071Z,2.49
2023-01-07T20:08:54.248Z,2.46
2023-01-07T20:11:21.136Z,2.37
2023-01-07T20:13:48.111Z,2.22
2023-01-07T20:16:22.806Z,2.25
2023-01-07T20:18:50.899Z,2.27
2023-01-07T20:21:18.863Z,2.27
2023-01-07T20:23:45.508Z,2.21
2023-01-07T20:26:18.696Z,2.13
2023-01-07T20:28:45.563Z,2.18
2023-01-07T20:31:13.540Z,2.22
2023-01-07T20:33:40.632Z,1.97
2023-01-07T20:36:09.071Z,2.24
2023-01-07T20:38:35.962Z,2.07
2023-01-07T20:41:03.446Z,2.00
2023-01-07T20:43:30.842Z,2.01
2023-01-07T20:46:00.874Z,2.05
2023-01-07T20:48:27.802Z,2.13
2023-01-07T20:50:54.531Z,1.97
2023-01-07T20:53:21.183Z,1.88
2023-01-07T20:55:49.312Z,1.88
2023-01-07T20:58:15.816Z,2.17
2023-01-07T21:00:42.443Z,2.00
2023-01-07T21:03:09.031Z,1.86
2023-01-07T21:05:37.621Z,1.77
2023-01-07T21:08:04.442Z,1.67
2023-01-07T21:10:30.873Z,1.56
2023-01-07T21:12:57.350Z,1.56
2023-01-07T21:15:23.807Z,1.41
2023-01-07T21:17:52.838Z,1.53
2023-01-07T21:20:19.408Z,1.68
2023-01-07T21:22:47.618Z,1.72
2023-01-07T21:25:15.443Z,1.58
2023-01-07T21:27:41.985Z,1.39
2023-01-07T21:30:14.292Z,1.36
2023-01-07T21:32:41.553Z,1.56
2023-01-07T21:35:08.863Z,1.65
2023-01-07T21:37:35.588Z,1.50
2023-01-07T21:40:02.368Z,1.45
2023-01-07T21:42:29.010Z,1.37
2023-01-07T21:44:55.485Z,1.33
2023-01-07T21:47:21.937Z,1.28
2023-01-07T21:49:51.399Z,1.19
2023-01-07T21:52:18.489Z,1.19
2023-01-07T21:54:45.050Z,1.09
2023-01-07T21:57:11.577Z,1.23
2023-01-07T21:59:38.073Z,1.30
2023-01-07T22:02:04.867Z,1.33
2023-01-07T22:04:31.539Z,1.51
2023-01-07T22:06:58.111Z,1.44
2023-01-07T22:09:25.259Z,1.36
2023-01-07T22:11:51.755Z,1.22
2023-01-07T22:14:18.888Z,1.44
2023-01-07T22:16:48.135Z,1.43
2023-01-07T22:19:15.571Z,1.48
2023-01-07T22:21:42.100Z,1.34
2023-01-07T22:24:09.236Z,1.21
2023-01-07T22:26:36.295Z,1.06
2023-01-07T22:29:06.329Z,0.98
2023-01-07T22:31:33.829Z,0.99
2023-01-07T22:34:00.358Z,0.92
2023-01-07T22:36:34.950Z,0.74
2023-01-07T22:39:03.304Z,0.93
2023-01-07T22:41:30.305Z,0.90
2023-01-07T22:43:59.165Z,0.96
2023-01-07T22:46:27.303Z,0.94
2023-01-07T22:48:53.883Z,0.92
2023-01-07T22:51:24.905Z,0.97
2023-01-07T22:53:52.523Z,0.89
2023-01-07T22:56:19.154Z,0.81
2023-01-07T22:58:46.051Z,0.66
2023-01-07T23:01:14.235Z,0.72
2023-01-07T23:03:41.757Z,1.16
2023-01-07T23:06:09.288Z,0.93
2023-01-07T23:08:35.911Z,0.67
2023-01-07T23:11:02.698Z,0.59
2023-01-07T23:13:29.179Z,0.47
2023-01-07T23:15:55.893Z,0.49
2023-01-07T23:18:22.389Z,0.50
2023-01-07T23:20:48.848Z,0.48
2023-01-07T23:23:15.337Z,0.39
2023-01-07T23:25:48.805Z,0.24
2023-01-07T23:28:16.038Z,0.28
2023-01-07T23:30:42.547Z,0.46
2023-01-07T23:33:09.356Z,0.39
2023-01-07T23:35:35.801Z,0.30
2023-01-07T23:38:03.798Z,0.26
2023-01-07T23:40:30.383Z,0.52
2023-01-07T23:42:57.788Z,0.45
2023-01-07T23:45:24.416Z,0.48
2023-01-07T23:47:50.884Z,0.30
2023-01-07T23:50:17.422Z,0.48
2023-01-07T23:52:43.901Z,0.36
2023-01-07T23:55:10.553Z,0.33
2023-01-07T23:57:37.028Z,0.45
